sensor_id;sensor_type;location;lat;lon;timestamp;P1;durP1;ratioP1;P2;durP2;ratioP2
41253;SDS011;26987;59.928;30.306;2022-12-16T00:01:22;16.27;;;9.07;;
41253;SDS011;26987;59.928;30.306;2022-12-16T00:03:50;16.35;;;8.73;;
41253;SDS011;26987;59.928;30.306;2022-12-16T00:06:19;17.83;;;8.85;;
41253;SDS011;26987;59.928;30.306;2022-12-16T00:08:49;17.83;;;9.95;;
41253;SDS011;26987;59.928;30.306;2022-12-16T00:11:17;21.90;;;9.63;;
41253;SDS011;26987;59.928;30.306;2022-12-16T00:13:45;18.17;;;9.88;;
41253;SDS011;26987;59.928;30.306;2022-12-16T00:16:14;18.40;;;9.80;;
41253;SDS011;26987;59.928;30.306;2022-12-16T00:18:44;18.17;;;9.52;;
41253;SDS011;26987;59.928;30.306;2022-12-16T00:21:13;22.20;;;10.07;;
41253;SDS011;26987;59.928;30.306;2022-12-16T00:23:43;19.88;;;9.50;;
41253;SDS011;26987;59.928;30.306;2022-12-16T00:26:12;18.00;;;9.27;;
41253;SDS011;26987;59.928;30.306;2022-12-16T00:28:40;16.55;;;9.25;;
41253;SDS011;26987;59.928;30.306;2022-12-16T00:31:08;21.23;;;9.85;;
41253;SDS011;26987;59.928;30.306;2022-12-16T00:33:36;24.52;;;10.88;;
41253;SDS011;26987;59.928;30.306;2022-12-16T00:36:04;20.98;;;9.48;;
41253;SDS011;26987;59.928;30.306;2022-12-16T00:38:32;21.30;;;9.60;;
41253;SDS011;26987;59.928;30.306;2022-12-16T00:41:00;20.75;;;9.85;;
41253;SDS011;26987;59.928;30.306;2022-12-16T00:43:30;20.35;;;10.73;;
41253;SDS011;26987;59.928;30.306;2022-12-16T00:45:57;17.10;;;8.98;;
41253;SDS011;26987;59.928;30.306;2022-12-16T00:48:25;19.95;;;10.43;;
41253;SDS011;26987;59.928;30.306;2022-12-16T00:50:53;18.98;;;10.23;;
41253;SDS011;26987;59.928;30.306;2022-12-16T00:53:21;22.05;;;10.57;;
41253;SDS011;26987;59.928;30.306;2022-12-16T00:55:51;21.23;;;10.30;;
41253;SDS011;26987;59.928;30.306;2022-12-16T00:58:19;20.17;;;10.38;;
41253;SDS011;26987;59.928;30.306;2022-12-16T01:00:50;21.90;;;10.93;;
41253;SDS011;26987;59.928;30.306;2022-12-16T01:03:17;17.75;;;9.82;;
41253;SDS011;26987;59.928;30.306;2022-12-16T01:05:45;23.77;;;11.50;;
41253;SDS011;26987;59.928;30.306;2022-12-16T01:08:13;25.20;;;11.68;;
41253;SDS011;26987;59.928;30.306;2022-12-16T01:10:40;20.25;;;10.73;;
41253;SDS011;26987;59.928;30.306;2022-12-16T01:13:08;28.70;;;11.85;;
41253;SDS011;26987;59.928;30.306;2022-12-16T01:15:36;24.88;;;11.90;;
41253;SDS011;26987;59.928;30.306;2022-12-16T01:18:05;20.67;;;12.10;;
41253;SDS011;26987;59.928;30.306;2022-12-16T01:20:33;24.20;;;12.30;;
41253;SDS011;26987;59.928;30.306;2022-12-16T01:23:01;21.13;;;10.75;;
41253;SDS011;26987;59.928;30.306;2022-12-16T01:25:28;22.63;;;11.43;;
41253;SDS011;26987;59.928;30.306;2022-12-16T01:27:56;24.33;;;11.32;;
41253;SDS011;26987;59.928;30.306;2022-12-16T01:30:24;22.52;;;11.20;;
41253;SDS011;26987;59.928;30.306;2022-12-16T01:32:52;22.83;;;11.20;;
41253;SDS011;26987;59.928;30.306;2022-12-16T01:35:21;23.05;;;12.65;;
41253;SDS011;26987;59.928;30.306;2022-12-16T01:37:48;26.75;;;11.65;;
41253;SDS011;26987;59.928;30.306;2022-12-16T01:40:16;24.10;;;11.45;;
41253;SDS011;26987;59.928;30.306;2022-12-16T01:42:47;22.40;;;10.35;;
41253;SDS011;26987;59.928;30.306;2022-12-16T01:45:26;18.50;;;10.82;;
41253;SDS011;26987;59.928;30.306;2022-12-16T01:47:57;21.52;;;11.02;;
41253;SDS011;26987;59.928;30.306;2022-12-16T01:50:29;21.42;;;10.30;;
41253;SDS011;26987;59.928;30.306;2022-12-16T01:52:58;21.95;;;10.60;;
41253;SDS011;26987;59.928;30.306;2022-12-16T01:55:30;19.40;;;10.10;;
41253;SDS011;26987;59.928;30.306;2022-12-16T01:58:01;21.80;;;11.02;;
41253;SDS011;26987;59.928;30.306;2022-12-16T02:00:33;20.70;;;11.05;;
41253;SDS011;26987;59.928;30.306;2022-12-16T02:03:02;22.88;;;10.75;;
41253;SDS011;26987;59.928;30.306;2022-12-16T02:05:32;21.08;;;10.52;;
41253;SDS011;26987;59.928;30.306;2022-12-16T02:08:06;22.23;;;11.15;;
41253;SDS011;26987;59.928;30.306;2022-12-16T02:10:47;21.65;;;11.73;;
41253;SDS011;26987;59.928;30.306;2022-12-16T02:13:25;22.63;;;10.75;;
41253;SDS011;26987;59.928;30.306;2022-12-16T02:16:00;26.30;;;12.35;;
41253;SDS011;26987;59.928;30.306;2022-12-16T02:18:38;30.38;;;14.05;;
41253;SDS011;26987;59.928;30.306;2022-12-16T02:21:19;23.38;;;12.45;;
41253;SDS011;26987;59.928;30.306;2022-12-16T02:27:20;23.38;;;12.02;;
41253;SDS011;26987;59.928;30.306;2022-12-16T02:30:05;24.40;;;12.02;;
41253;SDS011;26987;59.928;30.306;2022-12-16T02:32:45;29.02;;;12.82;;
41253;SDS011;26987;59.928;30.306;2022-12-16T02:35:24;27.33;;;13.70;;
41253;SDS011;26987;59.928;30.306;2022-12-16T02:38:02;27.90;;;12.57;;
41253;SDS011;26987;59.928;30.306;2022-12-16T02:40:40;23.85;;;12.00;;
41253;SDS011;26987;59.928;30.306;2022-12-16T02:43:14;22.98;;;12.13;;
41253;SDS011;26987;59.928;30.306;2022-12-16T02:45:48;29.98;;;11.60;;
41253;SDS011;26987;59.928;30.306;2022-12-16T02:48:18;24.55;;;13.07;;
41253;SDS011;26987;59.928;30.306;2022-12-16T02:50:46;29.27;;;13.98;;
41253;SDS011;26987;59.928;30.306;2022-12-16T02:53:16;29.02;;;12.90;;
41253;SDS011;26987;59.928;30.306;2022-12-16T02:55:48;25.40;;;12.63;;
41253;SDS011;26987;59.928;30.306;2022-12-16T02:58:24;22.65;;;12.57;;
41253;SDS011;26987;59.928;30.306;2022-12-16T03:01:02;25.00;;;13.15;;
41253;SDS011;26987;59.928;30.306;2022-12-16T03:03:42;32.05;;;13.82;;
41253;SDS011;26987;59.928;30.306;2022-12-16T03:06:12;29.83;;;14.93;;
41253;SDS011;26987;59.928;30.306;2022-12-16T03:08:45;32.38;;;16.30;;
41253;SDS011;26987;59.928;30.306;2022-12-16T03:11:17;30.67;;;14.55;;
41253;SDS011;26987;59.928;30.306;2022-12-16T03:13:47;26.27;;;12.82;;
41253;SDS011;26987;59.928;30.306;2022-12-16T03:16:19;24.60;;;12.82;;
41253;SDS011;26987;59.928;30.306;2022-12-16T03:18:51;23.90;;;12.48;;
41253;SDS011;26987;59.928;30.306;2022-12-16T03:21:23;23.65;;;10.55;;
41253;SDS011;26987;59.928;30.306;2022-12-16T03:23:56;23.20;;;11.95;;
41253;SDS011;26987;59.928;30.306;2022-12-16T03:26:27;24.55;;;12.23;;
41253;SDS011;26987;59.928;30.306;2022-12-16T03:29:01;23.60;;;11.55;;
41253;SDS011;26987;59.928;30.306;2022-12-16T03:31:34;24.77;;;11.18;;
41253;SDS011;26987;59.928;30.306;2022-12-16T03:34:08;22.85;;;10.95;;
41253;SDS011;26987;59.928;30.306;2022-12-16T03:36:42;23.77;;;11.25;;
41253;SDS011;26987;59.928;30.306;2022-12-16T03:39:14;24.23;;;11.80;;
41253;SDS011;26987;59.928;30.306;2022-12-16T03:41:45;27.23;;;14.30;;
41253;SDS011;26987;59.928;30.306;2022-12-16T03:44:16;24.42;;;11.70;;
41253;SDS011;26987;59.928;30.306;2022-12-16T03:46:44;27.75;;;12.55;;
41253;SDS011;26987;59.928;30.306;2022-12-16T03:49:13;24.45;;;13.57;;
41253;SDS011;26987;59.928;30.306;2022-12-16T03:51:41;24.85;;;12.50;;
41253;SDS011;26987;59.928;30.306;2022-12-16T03:54:08;28.42;;;13.00;;
41253;SDS011;26987;59.928;30.306;2022-12-16T03:56:36;28.70;;;13.85;;
41253;SDS011;26987;59.928;30.306;2022-12-16T03:59:04;25.60;;;12.45;;
41253;SDS011;26987;59.928;30.306;2022-12-16T04:01:32;25.70;;;13.25;;
41253;SDS011;26987;59.928;30.306;2022-12-16T04:03:59;24.98;;;12.38;;
41253;SDS011;26987;59.928;30.306;2022-12-16T04:06:28;28.30;;;12.18;;
41253;SDS011;26987;59.928;30.306;2022-12-16T04:08:56;26.08;;;13.85;;
41253;SDS011;26987;59.928;30.306;2022-12-16T04:11:24;29.13;;;12.18;;
41253;SDS011;26987;59.928;30.306;2022-12-16T04:14:09;20.52;;;10.30;;
41253;SDS011;26987;59.928;30.306;2022-12-16T04:16:54;24.65;;;11.70;;
41253;SDS011;26987;59.928;30.306;2022-12-16T04:19:41;29.00;;;14.18;;
41253;SDS011;26987;59.928;30.306;2022-12-16T04:22:30;27.50;;;13.68;;
41253;SDS011;26987;59.928;30.306;2022-12-16T04:25:19;27.35;;;12.52;;
41253;SDS011;26987;59.928;30.306;2022-12-16T04:27:49;27.40;;;13.88;;
41253;SDS011;26987;59.928;30.306;2022-12-16T04:30:17;28.83;;;13.68;;
41253;SDS011;26987;59.928;30.306;2022-12-16T04:32:48;25.42;;;13.57;;
41253;SDS011;26987;59.928;30.306;2022-12-16T04:35:36;28.25;;;12.50;;
41253;SDS011;26987;59.928;30.306;2022-12-16T04:38:23;22.25;;;11.35;;
41253;SDS011;26987;59.928;30.306;2022-12-16T04:41:08;23.45;;;11.65;;
41253;SDS011;26987;59.928;30.306;2022-12-16T04:43:53;23.80;;;12.48;;
41253;SDS011;26987;59.928;30.306;2022-12-16T04:46:38;25.30;;;11.82;;
41253;SDS011;26987;59.928;30.306;2022-12-16T04:49:23;21.95;;;11.88;;
41253;SDS011;26987;59.928;30.306;2022-12-16T04:52:08;24.83;;;10.75;;
41253;SDS011;26987;59.928;30.306;2022-12-16T04:54:55;17.60;;;8.43;;
41253;SDS011;26987;59.928;30.306;2022-12-16T04:57:40;25.55;;;11.43;;
41253;SDS011;26987;59.928;30.306;2022-12-16T05:00:27;27.33;;;11.98;;
41253;SDS011;26987;59.928;30.306;2022-12-16T05:03:12;19.80;;;9.50;;
41253;SDS011;26987;59.928;30.306;2022-12-16T05:05:57;22.58;;;10.52;;
41253;SDS011;26987;59.928;30.306;2022-12-16T05:08:42;21.40;;;11.07;;
41253;SDS011;26987;59.928;30.306;2022-12-16T05:11:29;24.70;;;12.50;;
41253;SDS011;26987;59.928;30.306;2022-12-16T05:14:14;27.33;;;11.98;;
41253;SDS011;26987;59.928;30.306;2022-12-16T05:16:59;20.65;;;10.68;;
41253;SDS011;26987;59.928;30.306;2022-12-16T05:19:44;24.05;;;11.20;;
41253;SDS011;26987;59.928;30.306;2022-12-16T05:22:29;24.55;;;10.75;;
41253;SDS011;26987;59.928;30.306;2022-12-16T05:25:14;25.58;;;12.05;;
41253;SDS011;26987;59.928;30.306;2022-12-16T05:28:01;24.75;;;11.45;;
41253;SDS011;26987;59.928;30.306;2022-12-16T05:30:46;23.15;;;10.50;;
41253;SDS011;26987;59.928;30.306;2022-12-16T05:33:31;18.23;;;8.80;;
41253;SDS011;26987;59.928;30.306;2022-12-16T05:36:16;20.90;;;9.25;;
41253;SDS011;26987;59.928;30.306;2022-12-16T05:39:00;21.45;;;11.43;;
41253;SDS011;26987;59.928;30.306;2022-12-16T05:41:45;19.75;;;10.05;;
41253;SDS011;26987;59.928;30.306;2022-12-16T05:44:32;22.98;;;11.05;;
41253;SDS011;26987;59.928;30.306;2022-12-16T05:47:17;24.13;;;11.35;;
41253;SDS011;26987;59.928;30.306;2022-12-16T05:50:03;22.30;;;11.25;;
41253;SDS011;26987;59.928;30.306;2022-12-16T05:52:49;26.33;;;11.43;;
41253;SDS011;26987;59.928;30.306;2022-12-16T05:55:34;26.00;;;12.63;;
41253;SDS011;26987;59.928;30.306;2022-12-16T05:58:19;26.88;;;12.43;;
41253;SDS011;26987;59.928;30.306;2022-12-16T06:01:05;25.97;;;12.17;;
41253;SDS011;26987;59.928;30.306;2022-12-16T06:03:51;31.48;;;11.02;;
41253;SDS011;26987;59.928;30.306;2022-12-16T06:06:36;28.23;;;12.48;;
41253;SDS011;26987;59.928;30.306;2022-12-16T06:09:21;24.02;;;10.90;;
41253;SDS011;26987;59.928;30.306;2022-12-16T06:12:07;27.58;;;11.90;;
41253;SDS011;26987;59.928;30.306;2022-12-16T06:14:52;32.20;;;14.02;;
41253;SDS011;26987;59.928;30.306;2022-12-16T06:17:41;35.92;;;13.90;;
41253;SDS011;26987;59.928;30.306;2022-12-16T06:20:27;35.22;;;14.93;;
41253;SDS011;26987;59.928;30.306;2022-12-16T06:23:12;25.80;;;11.30;;
41253;SDS011;26987;59.928;30.306;2022-12-16T06:25:57;26.30;;;10.52;;
41253;SDS011;26987;59.928;30.306;2022-12-16T06:28:42;37.28;;;14.48;;
41253;SDS011;26987;59.928;30.306;2022-12-16T06:31:27;38.30;;;15.13;;
41253;SDS011;26987;59.928;30.306;2022-12-16T06:34:14;39.92;;;15.45;;
41253;SDS011;26987;59.928;30.306;2022-12-16T06:36:59;43.45;;;16.85;;
41253;SDS011;26987;59.928;30.306;2022-12-16T06:39:44;39.30;;;17.48;;
41253;SDS011;26987;59.928;30.306;2022-12-16T06:42:29;36.45;;;14.18;;
41253;SDS011;26987;59.928;30.306;2022-12-16T06:45:14;36.83;;;15.85;;
41253;SDS011;26987;59.928;30.306;2022-12-16T06:48:14;37.53;;;16.17;;
41253;SDS011;26987;59.928;30.306;2022-12-16T06:51:00;32.10;;;13.00;;
41253;SDS011;26987;59.928;30.306;2022-12-16T06:53:45;42.28;;;16.50;;
41253;SDS011;26987;59.928;30.306;2022-12-16T06:56:30;48.25;;;16.27;;
41253;SDS011;26987;59.928;30.306;2022-12-16T06:59:16;37.17;;;16.75;;
41253;SDS011;26987;59.928;30.306;2022-12-16T07:02:01;44.40;;;17.38;;
41253;SDS011;26987;59.928;30.306;2022-12-16T07:04:45;43.95;;;18.10;;
41253;SDS011;26987;59.928;30.306;2022-12-16T07:07:32;41.28;;;17.45;;
41253;SDS011;26987;59.928;30.306;2022-12-16T07:10:17;39.95;;;17.70;;
41253;SDS011;26987;59.928;30.306;2022-12-16T07:13:02;46.63;;;18.88;;
41253;SDS011;26987;59.928;30.306;2022-12-16T07:15:48;47.38;;;19.60;;
41253;SDS011;26987;59.928;30.306;2022-12-16T07:18:33;44.03;;;20.73;;
41253;SDS011;26987;59.928;30.306;2022-12-16T07:21:26;46.55;;;19.27;;
41253;SDS011;26987;59.928;30.306;2022-12-16T07:24:13;52.47;;;18.67;;
41253;SDS011;26987;59.928;30.306;2022-12-16T07:26:58;44.97;;;18.58;;
41253;SDS011;26987;59.928;30.306;2022-12-16T07:29:43;44.35;;;16.40;;
41253;SDS011;26987;59.928;30.306;2022-12-16T07:32:28;35.70;;;17.27;;
41253;SDS011;26987;59.928;30.306;2022-12-16T07:35:13;35.75;;;15.95;;
41253;SDS011;26987;59.928;30.306;2022-12-16T07:37:58;37.78;;;16.92;;
41253;SDS011;26987;59.928;30.306;2022-12-16T07:40:46;35.28;;;15.85;;
41253;SDS011;26987;59.928;30.306;2022-12-16T07:43:31;34.95;;;16.05;;
41253;SDS011;26987;59.928;30.306;2022-12-16T07:46:16;50.35;;;17.67;;
41253;SDS011;26987;59.928;30.306;2022-12-16T07:49:01;50.58;;;16.73;;
41253;SDS011;26987;59.928;30.306;2022-12-16T07:51:46;44.50;;;17.50;;
41253;SDS011;26987;59.928;30.306;2022-12-16T07:54:31;39.08;;;17.08;;
41253;SDS011;26987;59.928;30.306;2022-12-16T07:57:17;36.45;;;14.77;;
41253;SDS011;26987;59.928;30.306;2022-12-16T08:00:03;34.70;;;15.48;;
41253;SDS011;26987;59.928;30.306;2022-12-16T08:02:50;38.55;;;16.08;;
41253;SDS011;26987;59.928;30.306;2022-12-16T08:05:37;37.63;;;15.65;;
41253;SDS011;26987;59.928;30.306;2022-12-16T08:08:21;39.22;;;15.05;;
41253;SDS011;26987;59.928;30.306;2022-12-16T08:11:07;38.60;;;16.27;;
41253;SDS011;26987;59.928;30.306;2022-12-16T08:13:53;39.13;;;16.85;;
41253;SDS011;26987;59.928;30.306;2022-12-16T08:16:38;35.92;;;16.95;;
41253;SDS011;26987;59.928;30.306;2022-12-16T08:19:23;30.23;;;13.05;;
41253;SDS011;26987;59.928;30.306;2022-12-16T08:22:08;37.80;;;16.52;;
41253;SDS011;26987;59.928;30.306;2022-12-16T08:24:53;41.50;;;16.65;;
41253;SDS011;26987;59.928;30.306;2022-12-16T08:27:38;31.03;;;13.57;;
41253;SDS011;26987;59.928;30.306;2022-12-16T08:30:24;42.50;;;17.75;;
41253;SDS011;26987;59.928;30.306;2022-12-16T08:33:10;50.30;;;18.80;;
41253;SDS011;26987;59.928;30.306;2022-12-16T08:35:56;41.53;;;18.45;;
41253;SDS011;26987;59.928;30.306;2022-12-16T08:38:41;49.70;;;17.35;;
41253;SDS011;26987;59.928;30.306;2022-12-16T08:41:26;47.78;;;18.35;;
41253;SDS011;26987;59.928;30.306;2022-12-16T08:44:11;35.30;;;14.05;;
41253;SDS011;26987;59.928;30.306;2022-12-16T08:46:57;48.78;;;18.63;;
41253;SDS011;26987;59.928;30.306;2022-12-16T08:49:42;47.80;;;18.13;;
41253;SDS011;26987;59.928;30.306;2022-12-16T08:52:29;51.50;;;19.88;;
41253;SDS011;26987;59.928;30.306;2022-12-16T08:55:14;47.47;;;19.38;;
41253;SDS011;26987;59.928;30.306;2022-12-16T08:58:00;48.65;;;18.67;;
41253;SDS011;26987;59.928;30.306;2022-12-16T09:00:45;35.17;;;14.63;;
41253;SDS011;26987;59.928;30.306;2022-12-16T09:03:31;37.15;;;15.07;;
41253;SDS011;26987;59.928;30.306;2022-12-16T09:06:16;38.45;;;17.08;;
41253;SDS011;26987;59.928;30.306;2022-12-16T09:09:01;47.92;;;19.15;;
41253;SDS011;26987;59.928;30.306;2022-12-16T09:11:46;37.92;;;13.52;;
41253;SDS011;26987;59.928;30.306;2022-12-16T09:14:31;44.95;;;15.98;;
41253;SDS011;26987;59.928;30.306;2022-12-16T09:17:16;40.53;;;17.02;;
41253;SDS011;26987;59.928;30.306;2022-12-16T09:20:03;37.92;;;14.52;;
41253;SDS011;26987;59.928;30.306;2022-12-16T09:22:45;38.80;;;15.10;;
41253;SDS011;26987;59.928;30.306;2022-12-16T09:25:27;44.85;;;17.33;;
41253;SDS011;26987;59.928;30.306;2022-12-16T09:28:12;38.45;;;14.13;;
41253;SDS011;26987;59.928;30.306;2022-12-16T09:30:57;37.13;;;15.40;;
41253;SDS011;26987;59.928;30.306;2022-12-16T09:33:42;41.25;;;14.05;;
41253;SDS011;26987;59.928;30.306;2022-12-16T09:36:29;35.65;;;13.88;;
41253;SDS011;26987;59.928;30.306;2022-12-16T09:39:14;33.17;;;14.80;;
41253;SDS011;26987;59.928;30.306;2022-12-16T09:42:00;27.42;;;10.75;;
41253;SDS011;26987;59.928;30.306;2022-12-16T09:44:57;28.20;;;11.82;;
41253;SDS011;26987;59.928;30.306;2022-12-16T09:47:50;30.70;;;13.70;;
41253;SDS011;26987;59.928;30.306;2022-12-16T09:50:46;40.92;;;14.35;;
41253;SDS011;26987;59.928;30.306;2022-12-16T09:53:41;33.70;;;14.43;;
41253;SDS011;26987;59.928;30.306;2022-12-16T09:56:29;42.95;;;13.25;;
41253;SDS011;26987;59.928;30.306;2022-12-16T09:59:23;34.03;;;14.35;;
41253;SDS011;26987;59.928;30.306;2022-12-16T10:02:10;32.85;;;14.48;;
41253;SDS011;26987;59.928;30.306;2022-12-16T10:04:56;33.50;;;13.60;;
41253;SDS011;26987;59.928;30.306;2022-12-16T10:07:39;31.80;;;13.85;;
41253;SDS011;26987;59.928;30.306;2022-12-16T10:10:31;33.47;;;14.48;;
41253;SDS011;26987;59.928;30.306;2022-12-16T10:13:26;38.40;;;15.10;;
41253;SDS011;26987;59.928;30.306;2022-12-16T10:16:21;25.83;;;10.57;;
41253;SDS011;26987;59.928;30.306;2022-12-16T10:19:27;27.88;;;11.95;;
41253;SDS011;26987;59.928;30.306;2022-12-16T10:22:17;35.63;;;14.15;;
41253;SDS011;26987;59.928;30.306;2022-12-16T10:25:07;33.03;;;14.88;;
41253;SDS011;26987;59.928;30.306;2022-12-16T10:28:04;37.13;;;14.20;;
41253;SDS011;26987;59.928;30.306;2022-12-16T10:30:59;34.30;;;13.27;;
41253;SDS011;26987;59.928;30.306;2022-12-16T10:33:46;32.80;;;14.27;;
41253;SDS011;26987;59.928;30.306;2022-12-16T10:36:34;30.20;;;13.38;;
41253;SDS011;26987;59.928;30.306;2022-12-16T10:39:23;31.25;;;13.82;;
41253;SDS011;26987;59.928;30.306;2022-12-16T10:42:17;27.17;;;11.82;;
41253;SDS011;26987;59.928;30.306;2022-12-16T10:45:10;27.35;;;11.75;;
41253;SDS011;26987;59.928;30.306;2022-12-16T10:48:08;33.80;;;13.63;;
41253;SDS011;26987;59.928;30.306;2022-12-16T10:50:50;28.35;;;12.27;;
41253;SDS011;26987;59.928;30.306;2022-12-16T10:53:35;26.30;;;9.85;;
41253;SDS011;26987;59.928;30.306;2022-12-16T10:56:32;26.73;;;11.38;;
41253;SDS011;26987;59.928;30.306;2022-12-16T10:59:33;26.48;;;12.95;;
41253;SDS011;26987;59.928;30.306;2022-12-16T11:02:20;32.97;;;11.95;;
41253;SDS011;26987;59.928;30.306;2022-12-16T11:05:28;25.80;;;10.90;;
41253;SDS011;26987;59.928;30.306;2022-12-16T11:11:20;24.02;;;11.43;;
41253;SDS011;26987;59.928;30.306;2022-12-16T11:14:14;35.85;;;12.82;;
41253;SDS011;26987;59.928;30.306;2022-12-16T11:20:14;30.77;;;13.23;;
41253;SDS011;26987;59.928;30.306;2022-12-16T11:26:11;28.35;;;11.82;;
41253;SDS011;26987;59.928;30.306;2022-12-16T11:29:05;26.52;;;12.48;;
41253;SDS011;26987;59.928;30.306;2022-12-16T11:31:55;28.15;;;11.38;;
41253;SDS011;26987;59.928;30.306;2022-12-16T11:34:47;25.52;;;12.55;;
41253;SDS011;26987;59.928;30.306;2022-12-16T11:37:35;33.33;;;13.10;;
41253;SDS011;26987;59.928;30.306;2022-12-16T11:40:22;33.72;;;13.20;;
41253;SDS011;26987;59.928;30.306;2022-12-16T11:43:08;32.20;;;12.45;;
41253;SDS011;26987;59.928;30.306;2022-12-16T11:45:57;28.77;;;12.07;;
41253;SDS011;26987;59.928;30.306;2022-12-16T11:48:44;27.02;;;12.35;;
41253;SDS011;26987;59.928;30.306;2022-12-16T11:51:35;36.40;;;12.82;;
41253;SDS011;26987;59.928;30.306;2022-12-16T11:54:23;27.88;;;12.82;;
41253;SDS011;26987;59.928;30.306;2022-12-16T11:57:15;34.05;;;14.40;;
41253;SDS011;26987;59.928;30.306;2022-12-16T12:00:03;26.80;;;12.45;;
41253;SDS011;26987;59.928;30.306;2022-12-16T12:02:51;34.22;;;14.27;;
41253;SDS011;26987;59.928;30.306;2022-12-16T12:05:43;38.00;;;14.77;;
41253;SDS011;26987;59.928;30.306;2022-12-16T12:08:39;28.77;;;12.43;;
41253;SDS011;26987;59.928;30.306;2022-12-16T12:11:31;33.92;;;13.43;;
41253;SDS011;26987;59.928;30.306;2022-12-16T12:14:23;28.65;;;12.73;;
41253;SDS011;26987;59.928;30.306;2022-12-16T12:17:19;30.05;;;13.30;;
41253;SDS011;26987;59.928;30.306;2022-12-16T12:20:23;29.15;;;13.52;;
41253;SDS011;26987;59.928;30.306;2022-12-16T12:23:26;32.22;;;13.45;;
41253;SDS011;26987;59.928;30.306;2022-12-16T12:26:24;35.08;;;12.15;;
41253;SDS011;26987;59.928;30.306;2022-12-16T12:29:15;30.55;;;12.57;;
41253;SDS011;26987;59.928;30.306;2022-12-16T12:32:08;30.80;;;12.88;;
41253;SDS011;26987;59.928;30.306;2022-12-16T12:35:03;31.52;;;13.50;;
41253;SDS011;26987;59.928;30.306;2022-12-16T12:38:05;29.50;;;12.60;;
41253;SDS011;26987;59.928;30.306;2022-12-16T12:41:00;31.95;;;13.63;;
41253;SDS011;26987;59.928;30.306;2022-12-16T12:43:55;31.33;;;14.15;;
41253;SDS011;26987;59.928;30.306;2022-12-16T12:46:53;32.53;;;13.82;;
41253;SDS011;26987;59.928;30.306;2022-12-16T12:49:42;35.80;;;13.75;;
41253;SDS011;26987;59.928;30.306;2022-12-16T12:52:41;39.75;;;16.08;;
41253;SDS011;26987;59.928;30.306;2022-12-16T12:55:46;39.58;;;15.13;;
41253;SDS011;26987;59.928;30.306;2022-12-16T12:58:40;38.63;;;14.98;;
41253;SDS011;26987;59.928;30.306;2022-12-16T13:01:29;35.38;;;13.68;;
41253;SDS011;26987;59.928;30.306;2022-12-16T13:04:18;42.20;;;14.35;;
41253;SDS011;26987;59.928;30.306;2022-12-16T13:07:06;34.08;;;14.30;;
41253;SDS011;26987;59.928;30.306;2022-12-16T13:13:31;39.33;;;14.75;;
41253;SDS011;26987;59.928;30.306;2022-12-16T13:19:54;36.35;;;15.07;;
41253;SDS011;26987;59.928;30.306;2022-12-16T13:22:43;38.15;;;14.90;;
41253;SDS011;26987;59.928;30.306;2022-12-16T13:28:35;30.20;;;12.52;;
41253;SDS011;26987;59.928;30.306;2022-12-16T13:31:21;42.83;;;15.15;;
41253;SDS011;26987;59.928;30.306;2022-12-16T13:34:19;39.03;;;15.07;;
41253;SDS011;26987;59.928;30.306;2022-12-16T13:37:19;34.60;;;14.40;;
41253;SDS011;26987;59.928;30.306;2022-12-16T13:40:12;36.20;;;14.23;;
41253;SDS011;26987;59.928;30.306;2022-12-16T13:43:16;46.03;;;16.33;;
41253;SDS011;26987;59.928;30.306;2022-12-16T13:46:38;35.03;;;14.68;;
41253;SDS011;26987;59.928;30.306;2022-12-16T13:49:41;38.22;;;15.77;;
41253;SDS011;26987;59.928;30.306;2022-12-16T13:55:54;36.25;;;14.75;;
41253;SDS011;26987;59.928;30.306;2022-12-16T13:58:46;35.38;;;15.07;;
41253;SDS011;26987;59.928;30.306;2022-12-16T14:01:37;27.77;;;11.25;;
41253;SDS011;26987;59.928;30.306;2022-12-16T14:04:32;33.88;;;14.88;;
41253;SDS011;26987;59.928;30.306;2022-12-16T14:07:20;36.22;;;14.93;;
41253;SDS011;26987;59.928;30.306;2022-12-16T14:10:17;32.00;;;14.20;;
41253;SDS011;26987;59.928;30.306;2022-12-16T14:13:09;36.95;;;15.90;;
41253;SDS011;26987;59.928;30.306;2022-12-16T14:16:01;40.13;;;15.43;;
41253;SDS011;26987;59.928;30.306;2022-12-16T14:18:59;36.63;;;14.52;;
41253;SDS011;26987;59.928;30.306;2022-12-16T14:22:07;34.53;;;14.32;;
41253;SDS011;26987;59.928;30.306;2022-12-16T14:25:11;31.38;;;13.80;;
41253;SDS011;26987;59.928;30.306;2022-12-16T14:27:58;37.83;;;16.20;;
41253;SDS011;26987;59.928;30.306;2022-12-16T14:31:02;29.88;;;14.00;;
41253;SDS011;26987;59.928;30.306;2022-12-16T14:33:51;33.72;;;14.07;;
41253;SDS011;26987;59.928;30.306;2022-12-16T14:36:37;33.45;;;12.80;;
41253;SDS011;26987;59.928;30.306;2022-12-16T14:39:25;31.83;;;13.25;;
41253;SDS011;26987;59.928;30.306;2022-12-16T14:42:17;36.42;;;13.38;;
41253;SDS011;26987;59.928;30.306;2022-12-16T14:45:14;31.70;;;12.13;;
41253;SDS011;26987;59.928;30.306;2022-12-16T14:48:14;33.63;;;13.68;;
41253;SDS011;26987;59.928;30.306;2022-12-16T14:51:18;25.85;;;11.32;;
41253;SDS011;26987;59.928;30.306;2022-12-16T14:54:15;33.47;;;12.93;;
41253;SDS011;26987;59.928;30.306;2022-12-16T14:57:02;29.50;;;11.85;;
41253;SDS011;26987;59.928;30.306;2022-12-16T15:02:42;32.20;;;12.15;;
41253;SDS011;26987;59.928;30.306;2022-12-16T15:05:33;29.65;;;12.30;;
41253;SDS011;26987;59.928;30.306;2022-12-16T15:08:21;31.33;;;12.27;;
41253;SDS011;26987;59.928;30.306;2022-12-16T15:11:08;32.53;;;12.80;;
41253;SDS011;26987;59.928;30.306;2022-12-16T15:13:56;31.73;;;12.52;;
41253;SDS011;26987;59.928;30.306;2022-12-16T15:16:43;35.38;;;12.85;;
41253;SDS011;26987;59.928;30.306;2022-12-16T15:19:31;36.55;;;14.05;;
41253;SDS011;26987;59.928;30.306;2022-12-16T15:22:26;38.70;;;14.30;;
41253;SDS011;26987;59.928;30.306;2022-12-16T15:25:19;40.92;;;15.18;;
41253;SDS011;26987;59.928;30.306;2022-12-16T15:28:23;43.03;;;15.75;;
41253;SDS011;26987;59.928;30.306;2022-12-16T15:31:22;40.72;;;15.98;;
41253;SDS011;26987;59.928;30.306;2022-12-16T15:34:21;44.50;;;16.05;;
41253;SDS011;26987;59.928;30.306;2022-12-16T15:37:21;41.67;;;17.23;;
41253;SDS011;26987;59.928;30.306;2022-12-16T15:40:19;35.05;;;14.93;;
41253;SDS011;26987;59.928;30.306;2022-12-16T15:43:17;40.45;;;16.70;;
41253;SDS011;26987;59.928;30.306;2022-12-16T15:46:05;45.92;;;16.60;;
41253;SDS011;26987;59.928;30.306;2022-12-16T15:48:59;35.75;;;15.00;;
41253;SDS011;26987;59.928;30.306;2022-12-16T15:51:44;33.92;;;14.05;;
41253;SDS011;26987;59.928;30.306;2022-12-16T15:54:31;39.10;;;15.30;;
41253;SDS011;26987;59.928;30.306;2022-12-16T15:57:27;35.70;;;14.63;;
41253;SDS011;26987;59.928;30.306;2022-12-16T16:00:18;33.92;;;13.93;;
41253;SDS011;26987;59.928;30.306;2022-12-16T16:03:15;30.70;;;14.70;;
41253;SDS011;26987;59.928;30.306;2022-12-16T16:06:12;34.63;;;14.25;;
41253;SDS011;26987;59.928;30.306;2022-12-16T16:08:59;30.83;;;13.18;;
41253;SDS011;26987;59.928;30.306;2022-12-16T16:11:48;31.45;;;12.40;;
41253;SDS011;26987;59.928;30.306;2022-12-16T16:14:45;31.98;;;13.60;;